createdAt,value
2023-06-30T00:03:16.057Z,14.08
2023-06-30T00:08:17.909Z,14.02
2023-06-30T00:13:19.886Z,13.98
2023-06-30T00:18:21.662Z,13.95
2023-06-30T00:23:23.746Z,13.93
2023-06-30T00:28:25.417Z,13.91
2023-06-30T00:33:27.099Z,13.88
2023-06-30T00:38:28.808Z,13.82
2023-06-30T00:43:30.636Z,13.76
2023-06-30T00:48:32.828Z,13.70
2023-06-30T00:53:34.800Z,13.65
2023-06-30T00:58:36.678Z,13.61
2023-06-30T01:03:44.732Z,13.56
2023-06-30T01:08:57.332Z,13.50
2023-06-30T01:13:59.931Z,13.47
2023-06-30T01:19:04.476Z,13.48
2023-06-30T01:24:08.581Z,13.48
2023-06-30T01:29:11.136Z,13.47
2023-06-30T01:34:12.863Z,13.45
2023-06-30T01:39:16.641Z,13.42
2023-06-30T01:44:18.773Z,13.41
2023-06-30T01:49:20.846Z,13.39
2023-06-30T01:54:22.626Z,13.36
2023-06-30T01:59:24.301Z,13.33
2023-06-30T02:04:26.179Z,13.29
2023-06-30T02:09:38.781Z,13.26
2023-06-30T02:14:48.825Z,13.24
2023-06-30T02:19:50.545Z,13.23
2023-06-30T02:24:54.511Z,13.25
2023-06-30T02:29:57.781Z,13.28
2023-06-30T02:34:59.903Z,13.29
2023-06-30T02:40:02.055Z,13.31
2023-06-30T02:45:06.226Z,13.32
2023-06-30T02:50:08.672Z,13.35
2023-06-30T02:55:11.154Z,13.39
2023-06-30T03:00:13.334Z,13.42
2023-06-30T03:05:15.544Z,13.48
2023-06-30T03:10:17.158Z,13.58
2023-06-30T03:15:18.974Z,13.72
2023-06-30T03:20:20.750Z,13.91
2023-06-30T03:25:22.418Z,14.20
2023-06-30T03:30:24.304Z,14.61
2023-06-30T03:35:26.082Z,14.97
2023-06-30T03:40:27.983Z,15.37
2023-06-30T03:45:29.921Z,15.58
2023-06-30T03:50:31.797Z,16.11
2023-06-30T03:55:33.779Z,17.39
2023-06-30T04:00:35.975Z,18.42
2023-06-30T04:05:37.844Z,18.95
2023-06-30T04:10:39.522Z,20.23
2023-06-30T04:15:41.491Z,21.12
2023-06-30T04:20:43.373Z,21.87
2023-06-30T04:25:45.129Z,22.99
2023-06-30T04:30:47.850Z,24.00
2023-06-30T04:35:49.999Z,25.04
2023-06-30T04:40:51.910Z,25.62
2023-06-30T04:45:53.611Z,25.53
2023-06-30T04:50:55.361Z,24.85
2023-06-30T04:55:57.437Z,25.17
2023-06-30T05:00:59.629Z,26.33
2023-06-30T05:06:01.738Z,27.60
2023-06-30T05:11:03.686Z,28.79
2023-06-30T05:16:06.370Z,29.80
2023-06-30T05:21:11.004Z,30.63
2023-06-30T05:26:12.904Z,30.52
2023-06-30T05:31:14.681Z,29.58
2023-06-30T05:36:16.649Z,29.45
2023-06-30T05:41:18.526Z,29.41
2023-06-30T05:46:20.520Z,28.81
2023-06-30T05:51:22.278Z,28.07
2023-06-30T05:56:24.266Z,27.48
2023-06-30T06:01:26.451Z,27.04
2023-06-30T06:06:28.649Z,26.65
2023-06-30T06:11:30.505Z,26.32
2023-06-30T06:16:32.280Z,26.31
2023-06-30T06:21:36.005Z,26.40
2023-06-30T06:26:37.579Z,26.75
2023-06-30T06:31:39.346Z,27.34
2023-06-30T06:36:41.020Z,27.99
2023-06-30T06:41:42.796Z,28.46
2023-06-30T06:46:44.739Z,28.52
2023-06-30T06:51:47.168Z,28.56
2023-06-30T06:56:51.601Z,28.53
2023-06-30T07:01:53.498Z,29.50
2023-06-30T07:06:55.356Z,30.68
2023-06-30T07:11:57.131Z,30.79
2023-06-30T07:16:58.910Z,31.89
2023-06-30T07:22:00.713Z,33.60
2023-06-30T07:27:03.066Z,33.78
2023-06-30T07:32:05.202Z,33.63
2023-06-30T07:37:08.664Z,33.82
2023-06-30T07:42:10.336Z,34.68
2023-06-30T07:47:12.213Z,35.74
2023-06-30T07:52:13.992Z,37.15
2023-06-30T07:57:15.862Z,38.43
2023-06-30T08:02:18.368Z,39.53
2023-06-30T08:07:20.143Z,39.66
2023-06-30T08:12:42.077Z,39.87
2023-06-30T08:17:53.092Z,40.26
2023-06-30T08:22:59.249Z,40.80
2023-06-30T08:28:01.020Z,40.44
2023-06-30T08:33:03.357Z,39.86
2023-06-30T08:38:05.498Z,39.85
2023-06-30T08:43:11.769Z,39.95
2023-06-30T08:48:13.964Z,40.06
2023-06-30T08:53:17.986Z,40.11
2023-06-30T08:58:25.479Z,40.55
2023-06-30T09:03:28.402Z,40.22
2023-06-30T09:08:42.156Z,38.73
2023-06-30T09:13:46.079Z,36.74
2023-06-30T09:18:49.210Z,35.43
2023-06-30T09:23:51.780Z,34.99
2023-06-30T09:28:54.572Z,34.30
2023-06-30T09:34:14.682Z,33.24
2023-06-30T09:39:16.773Z,32.34
2023-06-30T09:44:21.209Z,32.39
2023-06-30T09:49:24.253Z,33.06
2023-06-30T09:54:43.710Z,33.49
2023-06-30T09:59:47.715Z,33.29
2023-06-30T10:04:49.393Z,32.77
2023-06-30T10:09:51.682Z,32.13
2023-06-30T10:14:54.063Z,31.53
2023-06-30T10:19:55.944Z,31.21
2023-06-30T10:25:01.414Z,31.01
2023-06-30T10:30:06.354Z,30.80
2023-06-30T10:35:09.951Z,30.41
2023-06-30T10:40:38.071Z,29.99
2023-06-30T10:46:15.479Z,29.66
2023-06-30T10:51:17.148Z,29.41
2023-06-30T10:56:22.157Z,29.44
2023-06-30T11:01:23.977Z,29.90
2023-06-30T11:06:26.675Z,30.39
2023-06-30T11:11:29.004Z,30.57
2023-06-30T11:16:31.086Z,30.61
2023-06-30T11:21:33.125Z,30.61
2023-06-30T11:26:36.736Z,30.42
2023-06-30T11:31:38.819Z,30.04
2023-06-30T11:36:40.494Z,29.51
2023-06-30T11:41:44.109Z,29.01
2023-06-30T11:46:46.123Z,28.68
2023-06-30T11:51:48.689Z,28.51
2023-06-30T11:56:50.970Z,28.39
2023-06-30T12:01:53.363Z,28.26
2023-06-30T12:06:56.192Z,28.14
2023-06-30T12:11:59.229Z,28.22
2023-06-30T12:17:03.906Z,28.40
2023-06-30T12:22:07.792Z,28.57
2023-06-30T12:27:09.711Z,28.58
2023-06-30T12:32:13.733Z,28.56
2023-06-30T12:37:18.788Z,28.65
2023-06-30T12:42:23.544Z,28.93
2023-06-30T12:47:26.374Z,29.14
2023-06-30T12:52:28.311Z,29.09
2023-06-30T12:57:30.264Z,28.83
2023-06-30T13:02:34.025Z,28.52
2023-06-30T13:07:35.973Z,28.23
2023-06-30T13:12:41.269Z,27.96
2023-06-30T13:17:43.201Z,27.74
2023-06-30T13:22:56.933Z,27.54
2023-06-30T13:28:06.849Z,27.40
2023-06-30T13:33:08.990Z,27.28
2023-06-30T13:38:12.856Z,27.06
2023-06-30T13:43:14.648Z,26.93
2023-06-30T13:48:16.347Z,26.94
2023-06-30T13:53:18.292Z,26.94
2023-06-30T13:58:20.976Z,26.98
2023-06-30T14:03:23.381Z,27.22
2023-06-30T14:08:25.351Z,27.56
2023-06-30T14:13:28.831Z,27.88
2023-06-30T14:18:30.737Z,28.11
2023-06-30T14:23:32.712Z,28.38
2023-06-30T14:28:34.492Z,28.78
2023-06-30T14:33:39.043Z,28.89
2023-06-30T14:38:41.129Z,28.53
2023-06-30T14:43:43.116Z,28.14
2023-06-30T14:48:44.972Z,28.11
2023-06-30T14:53:46.740Z,28.26
2023-06-30T14:58:50.768Z,28.26
2023-06-30T15:03:52.392Z,28.19
2023-06-30T15:08:54.120Z,28.12
2023-06-30T15:13:55.910Z,28.00
2023-06-30T15:18:58.739Z,27.85
2023-06-30T15:24:01.692Z,27.79
2023-06-30T15:29:04.215Z,27.79
2023-06-30T15:34:05.970Z,27.86
2023-06-30T15:39:08.572Z,27.95
2023-06-30T15:44:10.432Z,27.86
2023-06-30T15:49:13.705Z,27.68
2023-06-30T15:54:15.455Z,27.46
2023-06-30T15:59:17.293Z,27.28
2023-06-30T16:04:19.215Z,27.08
2023-06-30T16:09:21.351Z,26.77
2023-06-30T16:14:23.026Z,26.41
2023-06-30T16:19:24.810Z,25.98
2023-06-30T16:24:26.476Z,25.52
2023-06-30T16:29:33.047Z,25.10
2023-06-30T16:34:35.771Z,24.41
2023-06-30T16:39:37.842Z,23.29
2023-06-30T16:44:39.831Z,22.41
2023-06-30T16:49:42.316Z,21.76
2023-06-30T16:54:44.198Z,21.29
2023-06-30T16:59:46.068Z,20.95
2023-06-30T17:04:49.279Z,20.72
2023-06-30T17:09:51.049Z,20.56
2023-06-30T17:14:52.941Z,20.44
2023-06-30T17:19:54.653Z,20.34
2023-06-30T17:25:04.249Z,20.25
2023-06-30T17:30:10.347Z,20.16
2023-06-30T17:35:12.111Z,20.03
2023-06-30T17:40:14.089Z,19.90
2023-06-30T17:45:15.859Z,19.76
2023-06-30T17:50:18.198Z,19.67
2023-06-30T17:55:20.034Z,19.59
2023-06-30T18:00:22.102Z,19.51
2023-06-30T18:05:24.396Z,19.48
2023-06-30T18:10:26.368Z,19.45
2023-06-30T18:15:31.635Z,19.42
2023-06-30T18:20:33.408Z,19.39
2023-06-30T18:25:35.377Z,19.37
2023-06-30T18:30:38.321Z,19.37
2023-06-30T18:35:40.467Z,19.34
2023-06-30T18:40:42.337Z,19.31
2023-06-30T18:45:44.282Z,19.27
2023-06-30T18:50:46.302Z,19.21
2023-06-30T18:55:51.622Z,19.16
2023-06-30T19:00:54.602Z,19.10
2023-06-30T19:06:00.059Z,19.05
2023-06-30T19:11:08.047Z,19.01
2023-06-30T19:16:10.064Z,19.00
2023-06-30T19:21:12.415Z,18.99
2023-06-30T19:26:15.418Z,18.97
2023-06-30T19:31:18.394Z,18.93
2023-06-30T19:36:20.404Z,18.88
2023-06-30T19:41:24.201Z,18.85
2023-06-30T19:46:27.493Z,18.81
2023-06-30T19:51:29.521Z,18.77
2023-06-30T19:56:31.607Z,18.75
2023-06-30T20:01:33.710Z,18.72
2023-06-30T20:06:35.766Z,18.67
2023-06-30T20:11:37.534Z,18.64
2023-06-30T20:16:39.457Z,18.64
2023-06-30T20:21:41.796Z,18.66
2023-06-30T20:26:43.587Z,18.67
2023-06-30T20:31:45.432Z,18.67
2023-06-30T20:36:50.247Z,18.67
2023-06-30T20:41:52.075Z,18.66
2023-06-30T20:46:54.009Z,18.69
2023-06-30T20:51:57.836Z,18.70
2023-06-30T20:57:01.552Z,18.70
2023-06-30T21:02:03.776Z,18.71
2023-06-30T21:07:05.865Z,18.71
2023-06-30T21:12:07.743Z,18.69
2023-06-30T21:17:10.578Z,18.69
2023-06-30T21:22:12.318Z,18.69
2023-06-30T21:27:14.191Z,18.68
2023-06-30T21:32:16.273Z,18.65
2023-06-30T21:37:18.454Z,18.61
2023-06-30T21:42:20.231Z,18.56
2023-06-30T21:47:22.007Z,18.50
2023-06-30T21:52:23.805Z,18.45
2023-06-30T21:57:25.776Z,18.38
2023-06-30T22:02:27.885Z,18.23
2023-06-30T22:07:30.950Z,17.99
2023-06-30T22:12:33.130Z,17.77
2023-06-30T22:17:34.756Z,17.63
2023-06-30T22:22:36.703Z,17.52
2023-06-30T22:27:38.461Z,17.42
2023-06-30T22:32:40.282Z,17.35
2023-06-30T22:37:42.109Z,17.30
2023-06-30T22:42:44.665Z,17.23
2023-06-30T22:47:47.194Z,17.17
2023-06-30T22:52:50.110Z,17.11
2023-06-30T22:57:52.689Z,17.04
2023-06-30T23:02:54.588Z,16.99
2023-06-30T23:07:56.656Z,16.95
2023-06-30T23:12:59.151Z,16.90
2023-06-30T23:18:01.337Z,16.86
2023-06-30T23:23:08.018Z,16.80
2023-06-30T23:28:10.100Z,16.73
2023-06-30T23:33:12.304Z,16.68
2023-06-30T23:38:15.008Z,16.61
2023-06-30T23:43:23.660Z,16.52
2023-06-30T23:48:25.902Z,16.44
2023-06-30T23:53:28.183Z,16.37
2023-06-30T23:58:30.280Z,16.29
